KAID

Anderson Municipal-Darlington Field Airport

Anderson, Indiana, USA
METAR KAID 182045Z 00000KT 10SM BKN018 01/M02 A3012
Observed Flight Rules
Jan-18 @ 20:45 UTC (8 minutes ago) Marginal Visual Flight Rules
Visibility Clouds
10 miles
  • Broken at 1,800' AGL
Temperatures Readings
Current 1°C / 34°F
Dewpoint -2°C / 28°F
Humidity 81%
Altimeter 30.12" Hg
Pressure 1020.02 hPa
Elevation 280
METAR KAID 182045Z 00000KT 10SM BKN018 01/M02 A3012
Observed Flight Rules
Jan-18 @ 20:45 UTC
(8 minutes ago)
MVFR
Clouds
  • Broken at 1,800' AGL
Temperature Dewpoint
1°C / 34°F -2°C / 28°F
Humidity Altimeter Pressure
81% 30.12" Hg 1020.02 hPa